Portada
METAR-TAF:

METAR-TAF

Aeroports :

Bratsk, Rússia

latitud: 56-22-15N, longitud: 101-41-55E, altitud: 490 m

Observació

L'informe es va fer fa 35 minuts, a les 15:00 UTC
Vent 6 kt del Oest/Sud-Oest, variant entre Sud/Sud-Oest i Oest
Temperatura 16°C
Humitat 59%
Pressió 1017 hPa
Visibilitat 10 km o més

METAR: UIBB 251500Z AUTO 24003MPS 210V270 9999 // ///060/// 16/08 Q1017 RMK QFE719/0959

Hora: 23:35 (15:35 UTC)

Pronòstic

L'informe es va fer fa 1 hora i 35 minuts, a les 14:00 UTC
Pronòstic vàlid del 25 a les 15 UTC al 26 a les 15 UTC
Vent 10 kt del Oest amb ràfegues de 19 kt
Visibilitat 10 km o més
Cel ennuvolat a una alçada de 1600 ft, Cumulonimbus.
Probabilitat 40% :
Temporalment
l' 25 a les 21 UTC al 26 a les 12 UTC
tempesta, pluja

TAF: UIBB 251400Z 2515/2615 26005G10MPS 9999 BKN016CB PROB40 TEMPO 2521/2612 -TSRA

Observacions i pronòstics meteorològics de més de 4000 aeroports (METAR i TAF).

Les estacions disponibles són els punts grocs i vermells al mapa.

Posi el ratolí al punt desitjat per veure el nom de l'estació.

Feu clic per veure les observacions i els pronòstics meteorològics.

Per canviar el mapa: feu clic els botons verds amb una creu de color negre per apropar; al botó verd amb un guió per allunyar la imatge; o en les fletxes verdes per a mapes adjacents.


METAR-TAF: